Time;durP1;ratioP1;P1;durP2;ratioP2;P2;SDS_P1;SDS_P2;PMS_P1;PMS_P2;Temp;Humidity;BMP_temperature;BMP_pressure;BME280_temperature;BME280_humidity;BME280_pressure;Samples;Min_cycle;Max_cycle;Signal;HPM_P1;HPM_P2
2021/07/24 00:01:09;;;;;;;12.17;9.80;;;;;;;23.32;45.39;95114.41;5027714;28;20593;-69
2021/07/24 00:03:37;;;;;;;13.60;9.20;;;;;;;23.40;45.00;95116.97;5032458;28;20228;-69
2021/07/24 00:06:04;;;;;;;13.07;8.73;;;;;;;23.26;45.17;95107.66;5017067;28;20506;-69
2021/07/24 00:08:31;;;;;;;17.83;11.97;;;;;;;23.22;44.63;95112.09;5012702;28;20206;-69
2021/07/24 00:11:16;;;;;;;16.67;12.70;;;;;;;23.16;44.31;95114.19;5025757;28;20280;-69
2021/07/24 00:13:43;;;;;;;14.70;12.67;;;;;;;23.08;44.54;95105.13;5020571;28;20225;-69
2021/07/24 00:16:10;;;;;;;15.00;11.60;;;;;;;23.20;44.33;95114.31;5031524;28;20217;-69
2021/07/24 00:18:37;;;;;;;13.53;11.40;;;;;;;23.24;44.16;95113.34;5032490;28;20293;-69
2021/07/24 00:21:04;;;;;;;12.60;11.27;;;;;;;23.20;44.53;95103.63;5018952;28;20256;-69
2021/07/24 00:23:31;;;;;;;11.80;9.97;;;;;;;23.17;44.34;95109.63;5030596;28;20598;-68
2021/07/24 00:25:58;;;;;;;12.47;9.50;;;;;;;23.20;43.68;95106.28;5020140;28;20295;-69
2021/07/24 00:28:25;;;;;;;11.90;9.23;;;;;;;23.10;44.12;95110.94;5028707;28;20201;-69
2021/07/24 00:30:52;;;;;;;11.13;7.90;;;;;;;23.06;44.22;95106.59;5022358;28;20654;-68
2021/07/24 00:33:26;;;;;;;9.83;8.83;;;;;;;23.14;44.04;95114.50;5028083;28;20189;-68
2021/07/24 00:35:54;;;;;;;10.57;8.70;;;;;;;23.31;43.92;95116.28;5031354;28;20229;-68
2021/07/24 00:38:21;;;;;;;9.90;7.63;;;;;;;23.22;43.79;95115.56;5032125;28;20215;-69
2021/07/24 00:40:52;;;;;;;10.53;8.33;;;;;;;23.15;43.54;95112.63;5031264;28;20200;-68
2021/07/24 00:43:24;;;;;;;10.57;8.23;;;;;;;22.88;44.17;95108.59;5031474;28;20267;-69
2021/07/24 00:45:53;;;;;;;9.47;8.47;;;;;;;22.69;44.78;95115.53;5030331;28;20209;-67
2021/07/24 00:48:21;;;;;;;9.77;7.83;;;;;;;22.75;45.02;95109.69;5031308;28;20205;-70
2021/07/24 00:51:06;;;;;;;10.87;8.50;;;;;;;22.84;44.60;95101.59;5025594;28;20208;-68
2021/07/24 00:53:36;;;;;;;10.13;8.77;;;;;;;22.76;45.19;95105.88;5022523;28;20209;-68
2021/07/24 00:56:05;;;;;;;10.07;8.47;;;;;;;22.60;45.47;95102.25;5029631;28;20231;-67
2021/07/24 00:58:37;;;;;;;11.20;9.20;;;;;;;22.53;45.46;95101.94;5031904;28;20209;-68
2021/07/24 01:01:06;;;;;;;10.50;9.10;;;;;;;22.55;45.38;95097.09;5035848;28;20571;-67
2021/07/24 01:03:35;;;;;;;9.63;8.30;;;;;;;22.48;45.37;95102.13;5033995;28;20205;-69
2021/07/24 01:06:02;;;;;;;11.53;8.57;;;;;;;22.45;45.17;95097.44;5022880;28;20212;-68
2021/07/24 01:08:36;;;;;;;12.43;9.47;;;;;;;22.47;45.29;95103.25;5025436;28;20189;-68
2021/07/24 01:11:05;;;;;;;10.63;7.97;;;;;;;22.33;45.15;95101.94;5017282;28;20608;-68
2021/07/24 01:13:37;;;;;;;15.97;7.60;;;;;;;22.56;44.83;95109.34;5029511;28;20685;-68
2021/07/24 01:16:05;;;;;;;9.27;8.17;;;;;;;22.69;44.24;95100.28;5030428;28;20239;-69
2021/07/24 01:18:34;;;;;;;9.03;7.30;;;;;;;22.78;43.72;95092.19;5015854;28;20558;-68
2021/07/24 01:21:10;;;;;;;10.53;7.30;;;;;;;22.82;44.17;95099.25;5018779;28;20213;-69
2021/07/24 01:23:43;;;;;;;7.63;6.93;;;;;;;22.75;44.15;95101.66;5029834;28;20204;-69
2021/07/24 01:26:12;;;;;;;9.37;7.73;;;;;;;22.73;44.48;95106.56;5030490;28;20212;-70
2021/07/24 01:28:39;;;;;;;9.97;7.60;;;;;;;22.71;44.30;95111.44;5030860;28;20227;-68
2021/07/24 01:31:07;;;;;;;8.20;7.40;;;;;;;22.73;44.03;95101.22;5030349;28;20652;-69
2021/07/24 01:33:39;;;;;;;8.27;7.47;;;;;;;22.47;44.78;95097.91;5029005;28;20231;-68
2021/07/24 01:36:08;;;;;;;9.13;7.90;;;;;;;22.27;44.82;95097.88;5029064;28;20233;-68
2021/07/24 01:38:37;;;;;;;7.93;7.13;;;;;;;22.17;44.92;95099.81;5016925;28;20223;-68
2021/07/24 01:41:11;;;;;;;10.50;7.27;;;;;;;22.15;45.22;95093.25;5030644;28;20213;-69
2021/07/24 01:43:41;;;;;;;7.90;7.10;;;;;;;22.20;44.67;95095.72;5030818;28;20241;-68
2021/07/24 01:46:11;;;;;;;8.17;7.20;;;;;;;22.04;44.94;95097.38;5016766;28;20300;-70
2021/07/24 01:49:10;;;;;;;10.47;7.13;;;;;;;21.70;45.49;95081.50;5017911;28;20699;-70
2021/07/24 01:54:42;;;;;;;8.90;7.13;;;;;;;21.81;45.56;95090.72;5029901;28;20228;-68
2021/07/24 01:57:14;;;;;;;8.73;7.67;;;;;;;21.79;45.43;95087.59;5030144;28;20204;-70
2021/07/24 01:59:54;;;;;;;9.67;7.50;;;;;;;21.76;45.41;95090.88;5022631;28;20210;-68
2021/07/24 02:02:24;;;;;;;7.77;6.80;;;;;;;21.87;45.19;95089.47;5022794;28;20200;-68
2021/07/24 02:04:54;;;;;;;7.40;6.70;;;;;;;21.85;45.35;95086.31;5029754;28;20212;-70
2021/07/24 02:07:25;;;;;;;9.63;7.33;;;;;;;21.82;45.53;95081.66;5028977;28;20209;-68
2021/07/24 02:09:58;;;;;;;7.63;6.70;;;;;;;21.96;45.22;95087.53;5028295;28;20210;-69
2021/07/24 02:12:38;;;;;;;8.90;7.10;;;;;;;22.03;45.01;95083.25;5028970;28;20208;-68
2021/07/24 02:15:06;;;;;;;10.13;6.83;;;;;;;22.06;44.82;95087.19;5028428;28;20248;-68
2021/07/24 02:17:38;;;;;;;9.80;7.73;;;;;;;21.97;45.15;95094.41;5028701;28;20291;-69
2021/07/24 02:20:09;;;;;;;9.97;7.23;;;;;;;22.07;45.02;95096.72;5030655;28;20200;-68
2021/07/24 02:22:36;;;;;;;8.27;7.10;;;;;;;22.08;45.04;95092.94;5025926;28;20582;-68
2021/07/24 02:25:04;;;;;;;12.93;7.30;;;;;;;22.01;45.25;95092.69;5019119;28;20212;-68
2021/07/24 02:27:33;;;;;;;8.30;6.83;;;;;;;22.03;44.98;95093.13;5031300;28;20679;-69
2021/07/24 02:30:01;;;;;;;8.00;7.20;;;;;;;21.96;44.94;95092.88;5028274;28;20197;-68
2021/07/24 02:32:29;;;;;;;11.60;8.00;;;;;;;21.92;45.36;95091.94;5020260;28;20206;-70
2021/07/24 02:34:57;;;;;;;10.37;7.90;;;;;;;21.80;45.70;95087.31;5026172;28;20779;-68
2021/07/24 02:37:24;;;;;;;7.93;7.13;;;;;;;21.76;45.83;95094.34;5019053;28;20228;-69
2021/07/24 02:39:51;;;;;;;9.40;7.53;;;;;;;21.73;46.13;95094.97;5025456;28;20201;-69
2021/07/24 02:42:21;;;;;;;8.13;7.33;;;;;;;21.79;45.98;95099.06;5029640;28;20271;-69
2021/07/24 02:44:49;;;;;;;10.60;8.33;;;;;;;21.59;46.25;95089.06;5014130;28;20204;-69
2021/07/24 02:47:17;;;;;;;10.33;8.33;;;;;;;21.41;46.57;95097.44;5030622;28;20185;-69
2021/07/24 02:49:50;;;;;;;10.47;8.40;;;;;;;21.38;46.83;95095.41;5032260;28;20197;-69
2021/07/24 02:52:17;;;;;;;10.33;7.73;;;;;;;21.58;46.47;95105.38;5034013;28;20204;-69
2021/07/24 02:54:45;;;;;;;10.03;7.67;;;;;;;21.71;45.87;95104.41;5028498;28;20320;-69
2021/07/24 02:57:12;;;;;;;11.73;8.37;;;;;;;21.81;45.59;95107.53;5026372;28;20240;-68
2021/07/24 02:59:39;;;;;;;10.73;8.10;;;;;;;21.67;45.62;95108.81;5031914;28;20189;-70
2021/07/24 03:02:06;;;;;;;13.87;8.00;;;;;;;21.77;45.29;95101.22;5038211;28;20201;-68
2021/07/24 03:04:33;;;;;;;8.67;7.77;;;;;;;21.92;45.14;95113.28;5039975;28;20991;-69
2021/07/24 03:07:01;;;;;;;14.23;7.90;;;;;;;21.93;45.09;95107.63;5040768;28;20208;-68
2021/07/24 03:09:28;;;;;;;15.03;7.80;;;;;;;21.56;46.31;95111.03;5039991;28;20378;-68
2021/07/24 03:11:55;;;;;;;9.87;8.80;;;;;;;21.50;46.41;95106.19;5027042;28;20439;-69
2021/07/24 03:14:22;;;;;;;10.37;7.90;;;;;;;21.58;46.59;95100.84;5033796;28;20445;-68
2021/07/24 03:16:49;;;;;;;14.30;9.70;;;;;;;21.59;46.70;95105.06;5033008;28;20521;-69
2021/07/24 03:19:16;;;;;;;10.63;9.53;;;;;;;21.61;46.98;95110.06;5022909;28;20193;-69
2021/07/24 03:21:43;;;;;;;14.40;10.17;;;;;;;21.43;47.52;95106.69;5013879;28;20523;-68
2021/07/24 03:24:10;;;;;;;11.60;9.10;;;;;;;21.53;47.66;95110.91;5023567;28;20204;-68
2021/07/24 03:26:40;;;;;;;14.50;9.50;;;;;;;21.56;47.65;95115.59;5033723;28;20743;-69
2021/07/24 03:29:07;;;;;;;25.67;9.13;;;;;;;21.53;47.67;95121.56;5035084;28;20570;-68
2021/07/24 03:31:35;;;;;;;13.83;8.53;;;;;;;21.69;47.66;95109.28;5032623;28;20189;-68
2021/07/24 03:34:02;;;;;;;16.10;9.07;;;;;;;21.62;47.45;95119.66;5033795;28;20205;-70
2021/07/24 03:36:29;;;;;;;14.33;9.93;;;;;;;21.64;47.42;95106.78;5019107;28;20616;-68
2021/07/24 03:38:57;;;;;;;14.57;9.17;;;;;;;21.54;47.65;95112.47;5034150;28;20229;-69
2021/07/24 03:41:24;;;;;;;14.73;10.07;;;;;;;21.56;47.50;95120.91;5033934;28;20211;-69
2021/07/24 03:43:52;;;;;;;14.10;9.73;;;;;;;21.59;48.00;95121.06;5035445;28;20201;-69
2021/07/24 03:46:21;;;;;;;11.30;9.40;;;;;;;21.49;48.24;95126.75;5036875;28;20847;-68
2021/07/24 03:48:48;;;;;;;12.87;9.83;;;;;;;21.58;48.12;95130.19;5035200;28;20200;-69
2021/07/24 03:51:22;;;;;;;14.10;9.17;;;;;;;21.64;48.24;95133.47;5032835;28;20223;-69
2021/07/24 03:53:49;;;;;;;17.03;9.77;;;;;;;21.71;48.28;95123.88;5033201;28;20235;-69
2021/07/24 03:56:23;;;;;;;15.00;10.53;;;;;;;21.65;48.73;95125.13;5032598;28;20601;-69
2021/07/24 03:58:52;;;;;;;12.47;9.73;;;;;;;21.62;48.46;95125.75;5032204;28;20626;-68
2021/07/24 04:01:22;;;;;;;14.33;10.10;;;;;;;21.56;48.64;95127.03;5031478;28;20193;-68
2021/07/24 04:03:52;;;;;;;14.97;9.50;;;;;;;21.61;48.55;95140.19;5032075;28;20634;-68
2021/07/24 04:06:25;;;;;;;15.93;10.73;;;;;;;21.55;48.73;95144.13;5031804;28;20276;-69
2021/07/24 04:08:57;;;;;;;17.20;10.03;;;;;;;21.59;48.99;95138.94;5022287;28;20644;-70
2021/07/24 04:11:25;;;;;;;16.07;11.23;;;;;;;21.58;48.84;95145.38;5029906;28;20197;-69
2021/07/24 04:13:52;;;;;;;16.87;11.60;;;;;;;21.63;49.05;95143.34;5032594;28;20215;-68
2021/07/24 04:16:19;;;;;;;14.77;9.60;;;;;;;21.74;48.42;95154.44;5031512;28;20217;-69
2021/07/24 04:18:47;;;;;;;11.80;10.10;;;;;;;21.87;48.82;95145.47;5031896;28;20205;-68
2021/07/24 04:21:14;;;;;;;13.63;10.77;;;;;;;21.92;48.73;95150.63;5031529;28;20633;-69
2021/07/24 04:23:41;;;;;;;12.57;10.47;;;;;;;21.84;48.35;95146.13;5031935;28;20199;-68
2021/07/24 04:26:08;;;;;;;14.23;11.10;;;;;;;21.96;48.24;95146.22;5031774;28;20692;-68
2021/07/24 04:28:35;;;;;;;16.50;10.90;;;;;;;21.98;48.37;95149.38;5025850;28;20198;-70
2021/07/24 04:31:02;;;;;;;13.67;11.13;;;;;;;22.01;48.49;95151.38;5023651;28;20279;-69
2021/07/24 04:33:30;;;;;;;14.20;11.17;;;;;;;21.89;48.13;95161.97;5031989;28;20233;-69
2021/07/24 04:35:56;;;;;;;13.13;10.80;;;;;;;21.82;48.13;95151.75;5031445;28;20224;-69
2021/07/24 04:38:23;;;;;;;11.90;10.63;;;;;;;21.61;49.33;95163.41;5031706;28;20455;-69
2021/07/24 04:40:50;;;;;;;14.60;10.90;;;;;;;21.69;49.53;95157.28;5030820;28;20204;-68
2021/07/24 04:43:19;;;;;;;15.47;11.73;;;;;;;21.82;49.17;95159.00;5031282;28;20272;-69
2021/07/24 04:45:46;;;;;;;16.67;13.47;;;;;;;21.88;49.18;95165.72;5031543;28;20212;-70
2021/07/24 04:48:13;;;;;;;23.07;18.10;;;;;;;21.93;48.61;95141.53;5030275;28;20200;-70
2021/07/24 04:50:47;;;;;;;17.90;14.80;;;;;;;22.02;49.01;95155.63;5025625;28;20208;-69
2021/07/24 04:53:14;;;;;;;23.30;16.43;;;;;;;21.85;48.69;95155.69;5024442;28;20540;-69
2021/07/24 04:55:41;;;;;;;18.93;15.40;;;;;;;21.89;48.43;95161.97;5025974;28;20208;-68
2021/07/24 04:58:09;;;;;;;14.57;13.07;;;;;;;22.11;47.83;95153.72;5031585;28;20292;-69
2021/07/24 05:00:37;;;;;;;17.07;13.27;;;;;;;22.14;48.12;95158.41;5031710;28;20201;-69
2021/07/24 05:03:05;;;;;;;24.73;16.00;;;;;;;21.95;48.65;95160.69;5016879;28;20202;-70
2021/07/24 05:05:34;;;;;;;21.77;16.13;;;;;;;21.92;48.71;95158.63;5023620;28;20204;-69
2021/07/24 05:08:04;;;;;;;17.27;13.60;;;;;;;21.70;49.20;95159.63;5033977;28;20198;-68
2021/07/24 05:10:31;;;;;;;17.57;13.53;;;;;;;21.77;50.08;95167.91;5032779;28;20197;-68
2021/07/24 05:12:58;;;;;;;13.10;11.70;;;;;;;21.82;49.56;95162.44;5032790;28;20209;-68
2021/07/24 05:15:26;;;;;;;16.30;11.73;;;;;;;21.79;49.67;95156.94;5030471;28;20258;-69
2021/07/24 05:17:53;;;;;;;13.80;12.07;;;;;;;22.01;49.29;95159.38;5016650;28;20325;-69
2021/07/24 05:20:20;;;;;;;17.63;12.70;;;;;;;22.00;48.80;95158.63;5024080;28;20192;-68
2021/07/24 05:22:47;;;;;;;16.53;11.90;;;;;;;21.89;49.24;95161.97;5011084;28;20193;-69
2021/07/24 05:25:14;;;;;;;17.17;12.83;;;;;;;22.08;48.95;95159.66;5024442;28;20194;-69
2021/07/24 05:27:41;;;;;;;13.67;12.23;;;;;;;21.89;49.04;95167.28;5010936;28;20584;-68
2021/07/24 05:30:08;;;;;;;20.23;12.30;;;;;;;22.15;48.58;95165.31;5027466;28;20193;-68
2021/07/24 05:32:35;;;;;;;16.23;11.53;;;;;;;22.10;49.16;95162.81;5021353;28;20751;-69
2021/07/24 05:35:03;;;;;;;21.33;12.40;;;;;;;22.20;48.02;95140.31;5028592;28;20193;-69
2021/07/24 05:37:31;;;;;;;13.70;10.60;;;;;;;22.36;48.84;95155.47;5030643;28;20221;-70
2021/07/24 05:39:58;;;;;;;15.57;11.33;;;;;;;22.21;47.77;95148.00;5029970;28;20220;-69
2021/07/24 05:42:25;;;;;;;15.03;10.93;;;;;;;22.37;48.15;95157.00;5030423;28;20308;-69
2021/07/24 05:44:52;;;;;;;17.40;11.87;;;;;;;22.30;48.81;95156.75;5029856;28;20197;-69
2021/07/24 05:47:19;;;;;;;16.00;11.33;;;;;;;22.58;48.29;95155.19;5030618;28;20581;-69
2021/07/24 05:49:46;;;;;;;18.70;11.20;;;;;;;22.64;47.65;95155.78;5030302;28;20197;-69
2021/07/24 05:52:13;;;;;;;14.40;10.90;;;;;;;22.25;49.50;95154.25;5017764;28;20221;-69
2021/07/24 05:54:40;;;;;;;14.40;10.97;;;;;;;22.79;47.75;95161.34;5029109;28;20201;-69
2021/07/24 05:57:08;;;;;;;14.47;10.63;;;;;;;22.32;48.97;95154.53;5019093;28;20217;-69
2021/07/24 05:59:35;;;;;;;18.43;11.87;;;;;;;22.64;46.53;95153.13;5027507;28;20197;-69
2021/07/24 06:02:05;;;;;;;16.23;10.50;;;;;;;22.80;46.05;95148.75;5030521;28;20188;-70
2021/07/24 06:04:33;;;;;;;15.13;10.63;;;;;;;22.74;46.57;95161.53;5015492;28;20202;-69
2021/07/24 06:07:00;;;;;;;15.60;10.53;;;;;;;22.86;46.23;95158.91;5021017;28;20241;-69
2021/07/24 06:09:28;;;;;;;11.00;9.80;;;;;;;23.00;45.25;95158.66;5024515;28;20197;-68
2021/07/24 06:11:55;;;;;;;15.57;10.30;;;;;;;22.88;44.94;95156.72;5022881;28;20296;-69
2021/07/24 06:14:23;;;;;;;15.03;9.63;;;;;;;22.60;45.40;95144.97;5023541;28;20197;-69
2021/07/24 06:16:51;;;;;;;12.27;10.17;;;;;;;22.73;45.13;95161.84;5029677;28;20653;-69
2021/07/24 06:19:18;;;;;;;13.17;9.10;;;;;;;22.84;44.77;95155.03;5029944;28;20633;-69
2021/07/24 06:21:46;;;;;;;12.63;8.93;;;;;;;22.99;44.19;95157.88;5013251;28;20201;-68
2021/07/24 06:24:14;;;;;;;13.40;9.20;;;;;;;22.95;44.36;95159.66;5019336;28;20217;-70
2021/07/24 06:26:41;;;;;;;12.10;8.73;;;;;;;23.11;44.22;95165.97;5023532;28;20237;-69
2021/07/24 06:29:08;;;;;;;14.67;8.23;;;;;;;23.25;44.02;95159.56;5019588;28;20293;-69
2021/07/24 06:31:38;;;;;;;12.40;7.87;;;;;;;23.16;44.68;95167.66;5028391;28;20671;-69
2021/07/24 06:34:05;;;;;;;10.93;8.90;;;;;;;23.08;45.02;95166.59;5021334;28;20239;-70
2021/07/24 06:36:32;;;;;;;11.60;8.80;;;;;;;22.98;44.38;95168.91;5029596;28;20223;-69
2021/07/24 06:38:59;;;;;;;10.67;8.53;;;;;;;23.20;43.90;95151.72;5030123;28;20193;-69
2021/07/24 06:41:26;;;;;;;12.83;9.03;;;;;;;23.39;43.62;95144.84;5028798;28;20193;-69
2021/07/24 06:43:56;;;;;;;11.50;8.53;;;;;;;23.56;44.97;95154.56;5030028;28;20204;-69
2021/07/24 06:46:23;;;;;;;9.20;7.57;;;;;;;23.52;44.13;95148.34;5029819;28;20205;-69
2021/07/24 06:48:50;;;;;;;7.57;6.83;;;;;;;23.41;43.63;95152.53;5008874;28;20289;-69
2021/07/24 06:51:18;;;;;;;8.10;6.07;;;;;;;23.52;42.91;95154.44;5028947;28;20197;-68
2021/07/24 06:53:45;;;;;;;10.27;7.43;;;;;;;23.87;42.85;95157.53;5029972;28;20224;-69
2021/07/24 06:56:12;;;;;;;7.90;6.50;;;;;;;23.75;43.86;95157.53;5029140;28;20235;-68
2021/07/24 06:58:39;;;;;;;11.60;6.80;;;;;;;24.01;42.88;95144.66;5020076;28;20224;-70
2021/07/24 07:01:09;;;;;;;8.83;6.20;;;;;;;24.16;42.07;95152.00;5014735;28;20208;-69
2021/07/24 07:03:37;;;;;;;9.67;6.30;;;;;;;23.91;42.27;95153.88;5035714;28;20194;-70
2021/07/24 07:06:07;;;;;;;9.80;7.03;;;;;;;23.77;42.10;95139.25;5035660;28;20230;-69
2021/07/24 07:08:34;;;;;;;10.60;6.80;;;;;;;24.23;41.72;95138.88;5037069;28;20280;-69
2021/07/24 07:11:05;;;;;;;10.97;7.23;;;;;;;24.44;41.97;95144.88;5020221;28;20197;-72
2021/07/24 07:13:33;;;;;;;9.23;6.50;;;;;;;23.79;41.84;95148.50;5034732;28;20205;-69
2021/07/24 07:16:04;;;;;;;8.10;6.40;;;;;;;23.88;41.71;95135.81;5016867;28;20218;-70
2021/07/24 07:18:32;;;;;;;7.53;6.17;;;;;;;24.34;40.69;95131.16;5015451;28;20585;-69
2021/07/24 07:20:59;;;;;;;10.23;6.83;;;;;;;24.35;43.33;95144.22;5017295;28;20285;-69
2021/07/24 07:23:26;;;;;;;10.10;6.30;;;;;;;24.80;41.39;95134.13;5023317;28;20691;-70
2021/07/24 07:25:54;;;;;;;8.90;6.93;;;;;;;25.05;40.25;95138.28;5019758;28;20669;-69
2021/07/24 07:28:22;;;;;;;7.70;5.87;;;;;;;24.99;40.66;95138.88;5029860;28;20209;-68
2021/07/24 07:30:48;;;;;;;8.20;5.50;;;;;;;25.34;40.01;95139.09;5029309;28;20197;-69
2021/07/24 07:33:15;;;;;;;9.40;5.70;;;;;;;25.16;39.27;95138.59;5029396;28;20236;-70
2021/07/24 07:35:42;;;;;;;11.37;6.50;;;;;;;25.12;40.37;95134.25;5032647;28;20292;-69
2021/07/24 07:38:09;;;;;;;7.17;5.47;;;;;;;25.23;39.21;95136.13;5032721;28;20209;-68
2021/07/24 07:40:38;;;;;;;7.47;6.03;;;;;;;25.10;38.39;95137.28;5032363;28;20228;-69
2021/07/24 07:43:06;;;;;;;10.43;6.23;;;;;;;25.03;39.08;95129.84;5032411;28;20229;-70
2021/07/24 07:45:33;;;;;;;11.07;7.07;;;;;;;25.08;39.06;95134.94;5032254;28;20193;-69
2021/07/24 07:48:00;;;;;;;8.30;7.47;;;;;;;25.22;38.44;95136.47;5032807;28;20189;-69
2021/07/24 07:50:27;;;;;;;7.87;6.10;;;;;;;25.37;38.85;95141.06;5032156;28;20212;-70
2021/07/24 07:52:54;;;;;;;138.77;124.07;;;;;;;25.57;38.07;95119.44;5031085;28;20305;-70
2021/07/24 07:55:21;;;;;;;14.60;9.57;;;;;;;25.48;37.90;95120.72;5032313;28;20319;-69
2021/07/24 07:57:48;;;;;;;12.53;6.53;;;;;;;25.42;37.99;95127.47;5032028;28;20220;-71
2021/07/24 08:00:15;;;;;;;8.97;5.90;;;;;;;25.03;38.47;95132.50;5032208;28;20242;-69
2021/07/24 08:02:42;;;;;;;12.17;8.90;;;;;;;25.45;38.32;95137.50;5018633;28;20197;-70
2021/07/24 08:05:09;;;;;;;12.77;6.07;;;;;;;25.71;37.78;95124.41;5024171;28;20204;-70
2021/07/24 08:07:37;;;;;;;15.37;5.90;;;;;;;25.60;38.23;95123.34;5026576;28;20201;-69
2021/07/24 08:10:04;;;;;;;10.40;6.57;;;;;;;25.99;38.66;95125.88;5031926;28;20217;-69
2021/07/24 08:12:31;;;;;;;13.17;6.83;;;;;;;26.14;38.85;95121.66;5020282;28;20575;-71
2021/07/24 08:14:58;;;;;;;13.77;6.27;;;;;;;26.13;38.21;95119.31;5030084;28;20186;-69
2021/07/24 08:17:25;;;;;;;9.93;6.10;;;;;;;26.11;37.56;95119.66;5021751;28;20221;-69
2021/07/24 08:19:52;;;;;;;9.07;5.87;;;;;;;26.17;37.07;95115.56;5028573;28;20690;-69
2021/07/24 08:25:05;;;;;;;10.63;6.17;;;;;;;26.14;36.45;95116.28;5031862;28;20275;-68
2021/07/24 08:27:33;;;;;;;9.37;6.40;;;;;;;26.60;35.83;95110.06;5032111;28;20663;-69
2021/07/24 08:30:01;;;;;;;6.57;5.87;;;;;;;26.79;36.33;95115.47;5031401;28;20201;-70
2021/07/24 08:32:27;;;;;;;8.97;5.77;;;;;;;26.70;34.76;95109.53;5031552;28;20193;-70
2021/07/24 08:34:54;;;;;;;8.90;6.20;;;;;;;27.01;34.31;95106.72;5031616;28;20262;-70
2021/07/24 08:37:21;;;;;;;9.83;6.23;;;;;;;26.85;34.20;95108.69;5033266;28;20213;-72
2021/07/24 08:39:48;;;;;;;7.70;6.00;;;;;;;26.74;34.26;95106.91;5033746;28;20213;-69
2021/07/24 08:42:32;;;;;;;7.13;6.43;;;;;;;27.02;34.76;95108.25;5032098;28;20782;-69
2021/07/24 08:45:00;;;;;;;10.27;6.90;;;;;;;26.94;34.37;95106.59;5030371;28;20233;-70
2021/07/24 08:47:29;;;;;;;8.83;5.93;;;;;;;26.82;35.06;95109.38;5031564;28;20185;-69
2021/07/24 08:49:58;;;;;;;6.60;5.90;;;;;;;26.92;34.44;95102.69;5031312;28;20292;-69
2021/07/24 08:52:29;;;;;;;13.77;6.30;;;;;;;26.96;35.75;95106.22;5030957;28;20211;-71
2021/07/24 08:54:58;;;;;;;7.20;6.03;;;;;;;27.35;35.01;95099.75;5023613;28;20218;-71
2021/07/24 08:57:34;;;;;;;8.57;6.40;;;;;;;27.61;34.24;95107.13;5025389;28;20229;-69
2021/07/24 09:00:13;;;;;;;8.57;6.17;;;;;;;27.63;33.73;95104.84;5033048;28;20773;-68
2021/07/24 09:02:45;;;;;;;7.27;6.37;;;;;;;27.87;33.53;95109.88;5032154;28;20287;-70
2021/07/24 09:05:15;;;;;;;10.70;5.67;;;;;;;27.66;33.11;95104.91;5024031;28;20194;-70
2021/07/24 09:07:44;;;;;;;6.37;5.77;;;;;;;28.09;33.30;95114.50;5028242;28;20204;-69
2021/07/24 09:10:11;;;;;;;9.93;6.10;;;;;;;27.87;33.85;95093.72;5021673;28;20201;-68
2021/07/24 09:12:42;;;;;;;7.97;5.73;;;;;;;27.75;34.57;95120.84;5031808;28;20208;-68
2021/07/24 09:15:12;;;;;;;9.13;5.63;;;;;;;27.57;35.29;95111.66;5012410;28;20653;-69
2021/07/24 09:17:40;;;;;;;15.03;5.87;;;;;;;27.51;34.62;95115.78;5025258;28;20217;-69
2021/07/24 09:20:08;;;;;;;8.70;5.30;;;;;;;27.24;35.07;95131.00;5033737;28;20208;-69
2021/07/24 09:22:40;;;;;;;8.73;5.67;;;;;;;27.26;34.83;95127.97;5032854;28;20197;-69
2021/07/24 09:25:10;;;;;;;7.80;5.70;;;;;;;26.88;35.43;95128.72;5018388;28;20216;-69
2021/07/24 09:27:39;;;;;;;10.77;5.40;;;;;;;26.91;34.94;95128.03;5033098;28;20259;-68
2021/07/24 09:30:08;;;;;;;14.07;10.13;;;;;;;26.49;36.71;95130.53;5030186;28;20204;-69
2021/07/24 09:32:35;;;;;;;12.93;7.97;;;;;;;26.40;37.64;95129.94;5030663;28;20284;-70
2021/07/24 09:35:02;;;;;;;12.23;8.57;;;;;;;26.52;37.33;95137.91;5030087;28;20201;-69
2021/07/24 09:37:30;;;;;;;8.37;5.70;;;;;;;26.29;37.14;95128.94;5031031;28;20319;-68
2021/07/24 09:40:17;;;;;;;7.43;5.57;;;;;;;26.51;36.82;95130.19;5029802;28;20197;-69
2021/07/24 09:42:48;;;;;;;11.73;5.03;;;;;;;26.26;37.21;95129.59;5030490;28;20336;-69
2021/07/24 09:45:15;;;;;;;8.63;6.00;;;;;;;26.19;37.60;95134.03;5030208;28;20220;-68
2021/07/24 09:47:42;;;;;;;9.00;7.67;;;;;;;25.92;39.21;95146.41;5030570;28;20204;-70
2021/07/24 09:50:13;;;;;;;9.20;5.83;;;;;;;25.58;40.91;95149.75;5029852;28;20204;-70
2021/07/24 09:52:47;;;;;;;30.30;7.30;;;;;;;25.64;43.00;95148.34;5030487;28;20219;-70
2021/07/24 09:55:25;;;;;;;13.93;6.23;;;;;;;25.80;42.97;95149.16;5030012;28;20216;-68
2021/07/24 09:57:56;;;;;;;10.93;5.70;;;;;;;26.00;42.51;95153.53;5026230;28;20217;-69
2021/07/24 10:00:30;;;;;;;8.60;6.00;;;;;;;25.79;41.47;95148.38;5010464;28;20194;-69
2021/07/24 10:03:01;;;;;;;12.07;6.50;;;;;;;25.84;40.37;95155.38;5027493;28;20215;-68
2021/07/24 10:05:38;;;;;;;8.80;5.30;;;;;;;26.17;39.55;95158.56;5030122;28;20201;-69
2021/07/24 10:08:25;;;;;;;9.23;5.83;;;;;;;26.05;36.52;95161.34;5012218;28;20189;-70
2021/07/24 10:10:52;;;;;;;7.60;6.27;;;;;;;25.99;36.55;95168.06;5022514;28;20601;-69
2021/07/24 10:13:20;;;;;;;9.67;6.03;;;;;;;26.32;36.56;95162.34;5025385;28;20200;-69
2021/07/24 10:15:47;;;;;;;6.60;5.90;;;;;;;26.17;36.68;95155.88;5009888;28;20198;-70
2021/07/24 10:18:15;;;;;;;10.20;6.10;;;;;;;26.33;36.69;95155.88;5024037;28;20242;-68
2021/07/24 10:20:47;;;;;;;6.97;6.10;;;;;;;26.60;35.76;95153.06;5019484;28;20197;-68
2021/07/24 10:23:17;;;;;;;7.57;6.00;;;;;;;26.72;35.11;95149.50;5016040;28;20204;-68
2021/07/24 10:26:05;;;;;;;7.70;5.60;;;;;;;26.87;34.86;95154.84;5029961;28;20221;-69
2021/07/24 10:28:38;;;;;;;6.97;5.33;;;;;;;26.67;35.23;95150.53;5029603;28;20272;-69
2021/07/24 10:31:10;;;;;;;7.00;5.70;;;;;;;26.80;35.18;95143.94;5018811;28;20214;-68
2021/07/24 10:33:38;;;;;;;8.23;5.47;;;;;;;26.97;34.50;95151.59;5017231;28;20201;-69
2021/07/24 10:36:35;;;;;;;6.77;5.57;;;;;;;27.26;33.95;95150.28;5029385;28;20204;-69
2021/07/24 10:39:07;;;;;;;9.20;6.57;;;;;;;27.49;34.45;95151.13;5019335;28;20205;-69
2021/07/24 10:41:36;;;;;;;9.97;6.23;;;;;;;27.28;34.46;95158.75;5028821;28;20459;-67
2021/07/24 10:44:06;;;;;;;8.63;6.30;;;;;;;26.55;34.94;95152.56;5030011;28;20197;-69
2021/07/24 10:46:45;;;;;;;11.67;6.23;;;;;;;26.92;35.71;95157.25;5027910;28;20666;-68
2021/07/24 10:49:44;;;;;;;9.63;6.30;;;;;;;27.39;34.42;95164.41;5029837;28;20204;-69
2021/07/24 10:52:11;;;;;;;6.80;6.00;;;;;;;27.43;34.40;95157.94;5029828;28;20207;-69
2021/07/24 10:55:00;;;;;;;11.73;6.00;;;;;;;26.82;33.37;95162.41;5015244;28;20285;-69
2021/07/24 10:57:45;;;;;;;9.10;6.07;;;;;;;27.01;34.16;95168.59;5029436;28;20295;-70
2021/07/24 11:00:18;;;;;;;6.40;5.40;;;;;;;27.15;33.14;95165.44;5021133;28;20198;-69
2021/07/24 11:02:49;;;;;;;11.77;6.30;;;;;;;27.23;33.56;95169.81;5025143;28;20201;-69
2021/07/24 11:05:28;;;;;;;6.77;6.03;;;;;;;27.43;31.80;95165.22;5029340;28;20195;-70
2021/07/24 11:07:56;;;;;;;7.90;6.10;;;;;;;27.59;32.10;95168.63;5029952;28;20270;-69
2021/07/24 11:10:24;;;;;;;7.80;6.57;;;;;;;27.53;32.91;95170.03;5024244;28;20198;-69
2021/07/24 11:12:51;;;;;;;6.87;6.17;;;;;;;27.41;33.98;95167.50;5013999;28;20281;-68
2021/07/24 11:15:38;;;;;;;7.00;6.10;;;;;;;27.09;35.24;95161.44;5032599;28;20193;-70
2021/07/24 11:18:26;;;;;;;6.67;5.93;;;;;;;27.23;34.65;95160.94;5032094;28;20236;-69
2021/07/24 11:20:53;;;;;;;9.63;6.17;;;;;;;27.39;33.52;95159.78;5021616;28;20210;-69
2021/07/24 11:23:20;;;;;;;6.93;6.23;;;;;;;27.26;33.71;95154.88;5016701;28;20189;-68
2021/07/24 11:25:47;;;;;;;11.00;6.17;;;;;;;27.25;34.42;95153.28;5032614;28;20569;-71
2021/07/24 11:28:22;;;;;;;9.17;6.30;;;;;;;27.27;34.49;95151.03;5030227;28;20211;-68
2021/07/24 11:31:02;;;;;;;10.77;5.77;;;;;;;26.97;34.47;95142.72;5021752;28;20247;-69
2021/07/24 11:33:31;;;;;;;11.03;5.63;;;;;;;27.21;34.90;95141.72;5032569;28;20196;-71
2021/07/24 11:36:05;;;;;;;7.90;6.33;;;;;;;27.24;34.91;95141.00;5032873;28;20660;-69
2021/07/24 11:38:32;;;;;;;7.83;5.97;;;;;;;27.24;34.92;95135.59;5032489;28;20721;-69
2021/07/24 11:41:02;;;;;;;15.57;13.77;;;;;;;27.54;34.41;95139.28;5033031;28;20205;-69
2021/07/24 11:43:29;;;;;;;7.80;6.80;;;;;;;27.40;34.15;95139.03;5032695;28;20233;-69